createdAt,value
2022-10-01T00:00:20.224Z,65.96
2022-10-01T00:02:49.228Z,66.10
2022-10-01T00:05:21.541Z,65.87
2022-10-01T00:07:53.275Z,65.74
2022-10-01T00:10:25.844Z,65.91
2022-10-01T00:12:54.724Z,65.92
2022-10-01T00:15:23.888Z,65.80
2022-10-01T00:17:52.553Z,66.13
2022-10-01T00:20:28.484Z,66.13
2022-10-01T00:23:01.133Z,66.16
2022-10-01T00:25:30.704Z,65.87
2022-10-01T00:27:59.689Z,66.13
2022-10-01T00:30:28.504Z,65.76
2022-10-01T00:32:57.604Z,65.83
2022-10-01T00:35:26.237Z,66.12
2022-10-01T00:37:54.877Z,66.42
2022-10-01T00:40:26.104Z,66.21
2022-10-01T00:42:54.805Z,66.51
2022-10-01T00:45:23.515Z,66.65
2022-10-01T00:47:56.616Z,66.55
2022-10-01T00:50:29.214Z,66.36
2022-10-01T00:53:01.284Z,66.38
2022-10-01T00:55:36.483Z,66.54
2022-10-01T00:58:06.344Z,66.55
2022-10-01T01:00:36.693Z,66.54
2022-10-01T01:03:06.724Z,66.31
2022-10-01T01:05:35.735Z,66.08
2022-10-01T01:08:05.550Z,66.01
2022-10-01T01:10:52.614Z,66.18
2022-10-01T01:13:29.555Z,66.14
2022-10-01T01:16:06.405Z,66.02
2022-10-01T01:18:42.784Z,65.68
2022-10-01T01:21:21.546Z,66.12
2022-10-01T01:24:20.126Z,65.77
2022-10-01T01:27:07.664Z,66.19
2022-10-01T01:29:42.946Z,65.91
2022-10-01T01:32:16.264Z,66.22
2022-10-01T01:34:48.494Z,66.17
2022-10-01T01:37:23.125Z,66.05
2022-10-01T01:39:55.007Z,66.15
2022-10-01T01:42:31.684Z,66.09
2022-10-01T01:45:04.174Z,65.94
2022-10-01T01:47:34.621Z,65.79
2022-10-01T01:50:04.588Z,65.74
2022-10-01T01:52:35.205Z,66.02
2022-10-01T01:55:08.084Z,66.18
2022-10-01T01:57:43.950Z,66.00
2022-10-01T02:00:15.391Z,65.98
2022-10-01T02:02:51.226Z,66.06
2022-10-01T02:05:24.658Z,66.33
2022-10-01T02:08:23.465Z,66.15
2022-10-01T02:11:18.064Z,66.01
2022-10-01T02:13:55.684Z,66.12
2022-10-01T02:16:32.384Z,66.03
2022-10-01T02:19:06.625Z,66.69
2022-10-01T02:21:42.018Z,66.21
2022-10-01T02:24:21.304Z,66.54
2022-10-01T02:26:53.144Z,66.48
2022-10-01T02:29:24.985Z,66.85
2022-10-01T02:31:58.013Z,67.13
2022-10-01T02:34:30.954Z,67.01
2022-10-01T02:37:02.553Z,67.11
2022-10-01T02:39:35.614Z,66.84
2022-10-01T02:42:07.125Z,66.83
2022-10-01T02:44:40.505Z,67.09
2022-10-01T02:47:14.465Z,66.79
2022-10-01T02:49:43.243Z,66.89
2022-10-01T02:52:18.484Z,67.14
2022-10-01T02:54:52.314Z,66.78
2022-10-01T02:57:27.128Z,67.40
2022-10-01T02:59:58.003Z,67.12
2022-10-01T03:02:31.732Z,66.80
2022-10-01T03:05:01.037Z,67.14
2022-10-01T03:07:32.805Z,67.18
2022-10-01T03:10:01.488Z,67.34
2022-10-01T03:12:31.944Z,67.75
2022-10-01T03:15:00.625Z,67.56
2022-10-01T03:17:31.024Z,67.62
2022-10-01T03:19:59.743Z,68.00
2022-10-01T03:22:28.303Z,67.82
2022-10-01T03:24:57.056Z,67.43
2022-10-01T03:27:25.614Z,67.71
2022-10-01T03:29:56.826Z,67.58
2022-10-01T03:32:25.494Z,67.73
2022-10-01T03:34:58.326Z,67.36
2022-10-01T03:37:26.994Z,67.47
2022-10-01T03:39:56.574Z,67.30
2022-10-01T03:42:25.306Z,67.45
2022-10-01T03:44:53.953Z,67.06
2022-10-01T03:47:24.644Z,67.24
2022-10-01T03:49:54.714Z,66.93
2022-10-01T03:52:23.284Z,67.17
2022-10-01T03:54:51.789Z,67.01
2022-10-01T03:57:20.404Z,67.21
2022-10-01T03:59:48.946Z,67.12
2022-10-01T04:02:17.579Z,67.01
2022-10-01T04:04:46.244Z,66.96
2022-10-01T04:07:16.270Z,66.88
2022-10-01T04:09:44.815Z,67.25
2022-10-01T04:12:13.504Z,66.92
2022-10-01T04:14:42.144Z,67.32
2022-10-01T04:17:10.684Z,67.30
2022-10-01T04:19:39.444Z,67.17
2022-10-01T04:22:08.004Z,67.12
2022-10-01T04:24:38.114Z,67.00
2022-10-01T04:27:06.843Z,67.09
2022-10-01T04:29:39.973Z,67.28
2022-10-01T04:32:08.895Z,67.45
2022-10-01T04:34:55.533Z,66.92
2022-10-01T04:37:24.914Z,67.02
2022-10-01T04:39:55.324Z,67.26
2022-10-01T04:42:24.214Z,67.10
2022-10-01T04:44:52.864Z,66.99
2022-10-01T04:47:21.406Z,67.14
2022-10-01T04:49:50.214Z,67.12
2022-10-01T04:52:18.815Z,67.25
2022-10-01T04:54:47.374Z,67.02
2022-10-01T04:57:17.496Z,67.11
2022-10-01T04:59:46.134Z,67.30
2022-10-01T05:02:15.019Z,67.29
2022-10-01T05:04:43.644Z,67.16
2022-10-01T05:07:12.354Z,67.10
2022-10-01T05:09:40.893Z,67.28
2022-10-01T05:12:09.935Z,67.36
2022-10-01T05:14:40.011Z,67.51
2022-10-01T05:17:08.675Z,67.62
2022-10-01T05:19:37.315Z,67.63
2022-10-01T05:22:05.935Z,67.86
2022-10-01T05:24:34.574Z,67.92
2022-10-01T05:27:03.664Z,68.05
2022-10-01T05:29:32.255Z,67.94
2022-10-01T05:32:02.580Z,68.18
2022-10-01T05:34:31.257Z,68.29
2022-10-01T05:37:04.344Z,68.18
2022-10-01T05:39:39.050Z,68.37
2022-10-01T05:42:08.404Z,68.29
2022-10-01T05:44:49.820Z,68.45
2022-10-01T05:47:31.915Z,68.39
2022-10-01T05:50:04.003Z,68.48
2022-10-01T05:52:34.964Z,68.34
2022-10-01T05:55:12.919Z,68.29
2022-10-01T05:57:48.054Z,68.70
2022-10-01T06:00:22.949Z,68.57
2022-10-01T06:02:57.173Z,68.41
2022-10-01T06:05:33.270Z,68.42
2022-10-01T06:08:03.103Z,68.35
2022-10-01T06:10:31.834Z,68.69
2022-10-01T06:13:02.129Z,68.62
2022-10-01T06:15:31.083Z,68.65
2022-10-01T06:18:05.783Z,68.57
2022-10-01T06:20:34.464Z,68.52
2022-10-01T06:23:06.034Z,68.42
2022-10-01T06:25:36.709Z,68.53
2022-10-01T06:28:06.204Z,68.60
2022-10-01T06:30:37.103Z,68.44
2022-10-01T06:33:08.884Z,68.42
2022-10-01T06:35:41.654Z,68.61
2022-10-01T06:38:10.994Z,68.42
2022-10-01T06:40:39.865Z,68.69
2022-10-01T06:43:09.124Z,68.36
2022-10-01T06:45:39.654Z,68.43
2022-10-01T06:48:14.239Z,68.81
2022-10-01T06:50:43.944Z,68.61
2022-10-01T06:53:13.284Z,68.89
2022-10-01T06:55:42.483Z,68.92
2022-10-01T06:58:16.254Z,68.67
2022-10-01T07:00:45.661Z,68.74
2022-10-01T07:03:17.733Z,68.62
2022-10-01T07:05:47.285Z,68.80
2022-10-01T07:08:15.894Z,68.57
2022-10-01T07:10:44.694Z,68.58
2022-10-01T07:13:15.339Z,68.62
2022-10-01T07:15:44.345Z,68.63
2022-10-01T07:18:13.668Z,68.35
2022-10-01T07:20:44.013Z,68.26
2022-10-01T07:23:14.444Z,68.59
2022-10-01T07:26:16.295Z,68.09
2022-10-01T07:28:45.284Z,68.12
2022-10-01T07:31:14.399Z,68.27
2022-10-01T07:33:46.106Z,68.40
2022-10-01T07:36:16.173Z,68.11
2022-10-01T07:38:46.231Z,68.17
2022-10-01T07:41:17.555Z,68.52
2022-10-01T07:43:50.825Z,68.39
2022-10-01T07:46:19.542Z,68.61
2022-10-01T07:48:50.244Z,68.37
2022-10-01T07:51:20.634Z,68.18
2022-10-01T07:53:49.246Z,68.30
2022-10-01T07:56:18.044Z,68.25
2022-10-01T07:58:46.814Z,68.07
2022-10-01T08:01:15.931Z,68.20
2022-10-01T08:03:44.606Z,67.87
2022-10-01T08:06:14.235Z,68.08
2022-10-01T08:08:56.050Z,67.93
2022-10-01T08:11:26.385Z,68.61
2022-10-01T08:13:57.600Z,68.75
2022-10-01T08:16:29.780Z,69.36
2022-10-01T08:19:15.565Z,69.11
2022-10-01T08:21:46.713Z,69.27
2022-10-01T08:24:17.143Z,68.87
2022-10-01T08:26:46.415Z,68.65
2022-10-01T08:29:17.132Z,69.09
2022-10-01T08:31:46.014Z,68.88
2022-10-01T08:34:16.015Z,69.03
2022-10-01T08:36:46.443Z,69.39
2022-10-01T08:39:17.217Z,69.57
2022-10-01T08:41:56.846Z,69.34
2022-10-01T08:44:30.054Z,69.59
2022-10-01T08:47:10.563Z,69.57
2022-10-01T08:49:46.300Z,69.88
2022-10-01T08:52:19.334Z,69.89
2022-10-01T08:54:54.220Z,70.05
2022-10-01T08:57:27.095Z,69.67
2022-10-01T08:59:57.935Z,69.90
2022-10-01T09:02:31.849Z,70.35
2022-10-01T09:05:06.689Z,70.29
2022-10-01T09:07:56.283Z,70.72
2022-10-01T09:10:39.205Z,70.56
2022-10-01T09:13:41.015Z,70.51
2022-10-01T09:16:22.491Z,70.62
2022-10-01T09:19:05.183Z,70.59
2022-10-01T09:21:50.994Z,70.53
2022-10-01T09:24:46.144Z,70.39
2022-10-01T09:27:21.654Z,69.96
2022-10-01T09:30:01.938Z,69.47
2022-10-01T09:32:35.345Z,69.58
2022-10-01T09:35:12.875Z,70.41
2022-10-01T09:37:47.194Z,70.42
2022-10-01T09:40:23.051Z,70.22
2022-10-01T09:42:54.133Z,69.67
2022-10-01T09:45:25.379Z,69.61
2022-10-01T09:48:04.209Z,69.15
2022-10-01T09:50:43.155Z,69.17
2022-10-01T09:53:17.905Z,69.41
2022-10-01T09:55:53.638Z,69.33
2022-10-01T09:58:26.913Z,69.29
2022-10-01T10:01:00.284Z,69.40
2022-10-01T10:03:31.133Z,69.30
2022-10-01T10:06:02.694Z,69.42
2022-10-01T10:08:36.876Z,69.12
2022-10-01T10:11:20.294Z,69.18
2022-10-01T10:13:54.554Z,69.06
2022-10-01T10:16:29.122Z,68.64
2022-10-01T10:19:05.424Z,68.86
2022-10-01T10:21:40.314Z,68.78
2022-10-01T10:24:25.235Z,68.84
2022-10-01T10:26:56.488Z,69.17
2022-10-01T10:29:34.314Z,69.06
2022-10-01T10:32:09.614Z,69.84
2022-10-01T10:34:47.585Z,69.75
2022-10-01T10:37:18.349Z,69.75
2022-10-01T10:39:52.585Z,69.47
2022-10-01T10:42:24.634Z,69.24
2022-10-01T10:44:58.524Z,68.76
2022-10-01T10:47:27.520Z,69.46
2022-10-01T10:49:59.144Z,70.08
2022-10-01T10:52:30.804Z,70.01
2022-10-01T10:55:01.463Z,70.24
2022-10-01T10:57:31.256Z,70.25
2022-10-01T11:00:15.467Z,70.83
2022-10-01T11:02:53.326Z,70.13
2022-10-01T11:05:24.300Z,71.07
2022-10-01T11:07:56.914Z,70.96
2022-10-01T11:10:41.034Z,70.91
2022-10-01T11:13:38.418Z,71.14
2022-10-01T11:16:32.047Z,70.44
2022-10-01T11:19:22.543Z,69.75
2022-10-01T11:22:06.935Z,69.07
2022-10-01T11:25:03.030Z,69.50
2022-10-01T11:27:42.944Z,69.29
2022-10-01T11:30:21.757Z,70.38
2022-10-01T11:33:08.784Z,69.64
2022-10-01T11:35:53.214Z,69.69
2022-10-01T11:38:43.394Z,69.97
2022-10-01T11:41:26.565Z,70.52
2022-10-01T11:43:59.415Z,71.50
2022-10-01T11:46:42.121Z,70.95
2022-10-01T11:49:48.969Z,70.26
2022-10-01T11:52:32.914Z,71.34
2022-10-01T11:55:34.747Z,71.40
2022-10-01T11:58:26.392Z,71.29
2022-10-01T12:01:05.095Z,71.88
2022-10-01T12:03:44.414Z,70.09
2022-10-01T12:06:28.434Z,68.50
2022-10-01T12:09:09.245Z,68.30
2022-10-01T12:11:49.645Z,67.85
2022-10-01T12:14:28.339Z,67.39
2022-10-01T12:17:03.695Z,67.43
2022-10-01T12:19:36.004Z,67.88
2022-10-01T12:22:17.490Z,67.95
2022-10-01T12:24:49.214Z,67.87
2022-10-01T12:27:44.383Z,67.86
2022-10-01T12:30:17.324Z,67.53
2022-10-01T12:33:05.704Z,67.75
2022-10-01T12:35:54.374Z,67.69
2022-10-01T12:38:39.204Z,67.44
2022-10-01T12:41:23.814Z,67.28
2022-10-01T12:44:15.254Z,67.07
2022-10-01T12:46:53.717Z,67.19
2022-10-01T12:49:33.594Z,66.80
2022-10-01T12:52:10.218Z,67.20
2022-10-01T12:55:15.474Z,66.95
2022-10-01T12:57:56.705Z,66.96
2022-10-01T13:00:28.484Z,66.91
2022-10-01T13:03:28.273Z,66.85
2022-10-01T13:06:08.809Z,66.73
2022-10-01T13:09:01.954Z,66.71
2022-10-01T13:11:48.359Z,66.79
2022-10-01T13:14:19.214Z,66.57
2022-10-01T13:16:56.895Z,66.66
2022-10-01T13:19:32.916Z,66.80
2022-10-01T13:22:10.625Z,66.82
2022-10-01T13:24:46.725Z,66.84
2022-10-01T13:27:22.663Z,67.08
2022-10-01T13:30:03.333Z,66.75
2022-10-01T13:32:34.692Z,66.65
2022-10-01T13:35:23.545Z,66.74
2022-10-01T13:37:52.476Z,66.83
2022-10-01T13:40:28.409Z,66.89
2022-10-01T13:43:02.715Z,67.05
2022-10-01T13:45:35.644Z,67.21
2022-10-01T13:48:13.794Z,66.90
2022-10-01T13:50:43.385Z,66.82
2022-10-01T13:53:18.615Z,66.49
2022-10-01T13:55:49.054Z,67.05
2022-10-01T13:58:32.445Z,67.44
2022-10-01T14:01:03.328Z,67.91
2022-10-01T14:03:44.605Z,68.37
2022-10-01T14:06:21.454Z,67.56
2022-10-01T14:08:53.864Z,68.30
2022-10-01T14:11:44.505Z,68.08
2022-10-01T14:14:39.246Z,68.34
2022-10-01T14:17:09.064Z,67.74
2022-10-01T14:19:38.714Z,67.44
2022-10-01T14:22:22.954Z,67.56
2022-10-01T14:25:12.555Z,67.68
2022-10-01T14:27:52.044Z,67.66
2022-10-01T14:30:25.804Z,67.35
2022-10-01T14:33:14.634Z,67.46
2022-10-01T14:35:50.294Z,67.79
2022-10-01T14:38:21.191Z,67.74
2022-10-01T14:40:51.415Z,67.31
2022-10-01T14:43:22.004Z,67.00
2022-10-01T14:45:59.805Z,66.94
2022-10-01T14:48:30.943Z,67.03
2022-10-01T14:51:00.873Z,66.74
2022-10-01T14:53:36.016Z,66.91
2022-10-01T14:56:08.183Z,67.01
2022-10-01T14:58:41.125Z,66.86
2022-10-01T15:01:19.854Z,66.75
2022-10-01T15:03:49.465Z,67.28
2022-10-01T15:06:20.564Z,68.23
2022-10-01T15:08:50.704Z,68.62
2022-10-01T15:11:23.395Z,67.78
2022-10-01T15:13:53.483Z,67.86
2022-10-01T15:16:26.553Z,68.04
2022-10-01T15:18:59.775Z,68.02
2022-10-01T15:21:34.484Z,67.93
2022-10-01T15:24:04.803Z,67.93
2022-10-01T15:26:34.572Z,68.18
2022-10-01T15:29:05.834Z,68.04
2022-10-01T15:31:36.613Z,67.83
2022-10-01T15:34:06.484Z,67.79
2022-10-01T15:36:37.311Z,67.76
2022-10-01T15:39:24.995Z,67.62
2022-10-01T15:41:55.054Z,67.71
2022-10-01T15:44:46.673Z,67.70
2022-10-01T15:47:37.905Z,67.93
2022-10-01T15:50:19.830Z,68.17
2022-10-01T15:52:54.536Z,68.22
2022-10-01T15:55:29.413Z,68.27
2022-10-01T15:58:04.926Z,68.16
2022-10-01T16:00:35.391Z,68.49
2022-10-01T16:03:05.775Z,68.48
2022-10-01T16:05:46.123Z,68.42
2022-10-01T16:08:22.074Z,68.56
2022-10-01T16:11:11.124Z,68.73
2022-10-01T16:13:41.367Z,68.20
2022-10-01T16:16:23.132Z,67.93
2022-10-01T16:18:58.034Z,67.83
2022-10-01T16:21:27.274Z,67.72
2022-10-01T16:23:57.143Z,68.12
2022-10-01T16:26:41.364Z,67.96
2022-10-01T16:29:27.794Z,68.02
2022-10-01T16:31:57.760Z,67.81
2022-10-01T16:34:29.355Z,68.06
2022-10-01T16:36:58.264Z,67.76
2022-10-01T16:39:26.834Z,68.41
2022-10-01T16:42:19.180Z,67.97
2022-10-01T16:44:44.454Z,67.87
2022-10-01T16:47:14.264Z,68.63
2022-10-01T16:49:44.394Z,68.56
2022-10-01T16:52:17.186Z,68.33
2022-10-01T16:54:48.362Z,68.42
2022-10-01T16:57:18.253Z,68.67
2022-10-01T16:59:47.114Z,68.65
2022-10-01T17:02:16.494Z,68.61
2022-10-01T17:04:46.778Z,68.71
2022-10-01T17:07:15.474Z,68.51
2022-10-01T17:09:44.689Z,68.99
2022-10-01T17:12:13.662Z,69.79
2022-10-01T17:14:42.435Z,71.13
2022-10-01T17:17:11.213Z,69.71
2022-10-01T17:19:39.834Z,70.49
2022-10-01T17:22:10.510Z,70.52
2022-10-01T17:24:39.116Z,70.15
2022-10-01T17:27:07.915Z,69.98
2022-10-01T17:29:37.435Z,69.76
2022-10-01T17:32:06.137Z,68.88
2022-10-01T17:34:36.489Z,69.33
2022-10-01T17:37:05.145Z,68.89
2022-10-01T17:39:35.916Z,69.60
2022-10-01T17:42:04.844Z,69.66
2022-10-01T17:44:33.527Z,69.66
2022-10-01T17:47:02.435Z,69.25
2022-10-01T17:49:31.204Z,68.93
2022-10-01T17:51:59.955Z,68.84
2022-10-01T17:54:28.619Z,69.24
2022-10-01T17:56:58.753Z,68.94
2022-10-01T17:59:27.424Z,69.14
2022-10-01T18:01:56.027Z,68.84
2022-10-01T18:04:26.108Z,69.17
2022-10-01T18:06:59.582Z,69.06
2022-10-01T18:09:28.403Z,69.55
2022-10-01T18:11:58.543Z,69.61
2022-10-01T18:14:27.185Z,69.46
2022-10-01T18:16:55.963Z,69.77
2022-10-01T18:19:52.863Z,70.07
2022-10-01T18:22:14.604Z,69.95
2022-10-01T18:24:43.644Z,70.28
2022-10-01T18:27:14.091Z,70.00
2022-10-01T18:29:42.734Z,70.49
2022-10-01T18:32:17.764Z,70.29
2022-10-01T18:34:50.869Z,70.64
2022-10-01T18:37:30.206Z,70.61
2022-10-01T18:40:05.573Z,70.69
2022-10-01T18:42:45.854Z,70.73
2022-10-01T18:45:19.805Z,70.73
2022-10-01T18:48:04.440Z,70.87
2022-10-01T18:50:42.184Z,70.47
2022-10-01T18:53:23.074Z,70.26
2022-10-01T18:56:16.825Z,70.16
2022-10-01T18:59:19.710Z,70.27
2022-10-01T19:02:02.560Z,70.28
2022-10-01T19:04:45.374Z,70.65
2022-10-01T19:07:37.715Z,70.69
2022-10-01T19:10:16.786Z,70.60
2022-10-01T19:12:55.839Z,70.47
2022-10-01T19:15:35.136Z,70.51
2022-10-01T19:18:18.359Z,70.78
2022-10-01T19:20:55.685Z,70.82
2022-10-01T19:24:01.946Z,71.05
2022-10-01T19:26:38.147Z,71.03
2022-10-01T19:29:25.715Z,70.83
2022-10-01T19:31:59.222Z,70.88
2022-10-01T19:34:36.274Z,70.94
2022-10-01T19:37:11.394Z,71.07
2022-10-01T19:39:42.754Z,71.02
2022-10-01T19:42:18.654Z,70.68
2022-10-01T19:44:55.844Z,70.63
2022-10-01T19:47:34.274Z,70.25
2022-10-01T19:50:07.404Z,70.13
2022-10-01T19:52:41.489Z,70.11
2022-10-01T19:55:16.329Z,70.25
2022-10-01T19:57:46.114Z,70.04
2022-10-01T20:00:19.354Z,70.20
2022-10-01T20:02:57.404Z,70.25
2022-10-01T20:05:30.879Z,69.96
2022-10-01T20:08:07.724Z,70.04
2022-10-01T20:10:42.600Z,70.44
2022-10-01T20:13:36.964Z,70.15
2022-10-01T20:16:15.419Z,70.30
2022-10-01T20:18:57.394Z,70.25
2022-10-01T20:21:42.640Z,70.03
2022-10-01T20:24:24.465Z,70.20
2022-10-01T20:27:00.613Z,69.96
2022-10-01T20:29:39.165Z,70.17
2022-10-01T20:32:17.550Z,69.98
2022-10-01T20:34:56.925Z,70.06
2022-10-01T20:37:44.585Z,69.87
2022-10-01T20:40:25.893Z,69.88
2022-10-01T20:42:59.164Z,69.75
2022-10-01T20:45:29.993Z,69.94
2022-10-01T20:48:03.124Z,69.50
2022-10-01T20:50:39.130Z,69.67
2022-10-01T20:53:17.779Z,69.53
2022-10-01T20:55:50.825Z,69.37
2022-10-01T20:58:25.167Z,68.92
2022-10-01T21:00:59.973Z,69.11
2022-10-01T21:03:32.714Z,68.91
2022-10-01T21:06:08.800Z,68.50
2022-10-01T21:08:50.884Z,68.69
2022-10-01T21:11:27.925Z,68.53
2022-10-01T21:14:02.910Z,68.66
2022-10-01T21:16:50.517Z,68.35
2022-10-01T21:19:31.740Z,68.42
2022-10-01T21:22:13.505Z,68.99
2022-10-01T21:24:59.859Z,68.89
2022-10-01T21:27:47.699Z,69.16
2022-10-01T21:30:19.323Z,69.07
2022-10-01T21:33:03.314Z,69.31
2022-10-01T21:35:41.065Z,69.32
2022-10-01T21:38:18.830Z,69.35
2022-10-01T21:41:16.944Z,69.36
2022-10-01T21:44:20.334Z,69.82
2022-10-01T21:46:55.485Z,69.82
2022-10-01T21:49:39.354Z,69.58
2022-10-01T21:52:21.889Z,69.38
2022-10-01T21:55:12.704Z,69.50
2022-10-01T21:58:00.504Z,69.71
2022-10-01T22:00:31.202Z,69.73
2022-10-01T22:03:12.134Z,69.75
2022-10-01T22:05:46.021Z,69.88
2022-10-01T22:08:29.514Z,69.66
2022-10-01T22:11:04.384Z,70.02
2022-10-01T22:13:36.754Z,69.89
2022-10-01T22:16:10.123Z,69.92
2022-10-01T22:18:43.051Z,69.87
2022-10-01T22:21:14.263Z,70.02
2022-10-01T22:23:48.273Z,69.96
2022-10-01T22:26:27.558Z,70.25
2022-10-01T22:28:57.854Z,70.18
2022-10-01T22:31:31.383Z,70.46
2022-10-01T22:34:04.640Z,70.18
2022-10-01T22:36:38.138Z,70.40
2022-10-01T22:39:12.656Z,70.40
2022-10-01T22:41:47.854Z,70.57
2022-10-01T22:44:19.225Z,70.84
2022-10-01T22:47:09.310Z,70.46
2022-10-01T22:49:52.464Z,70.76
2022-10-01T22:52:32.653Z,70.69
2022-10-01T22:55:15.047Z,70.90
2022-10-01T22:58:01.041Z,70.65
2022-10-01T23:00:29.729Z,70.98
2022-10-01T23:03:09.979Z,70.86
2022-10-01T23:05:51.844Z,71.04
2022-10-01T23:08:30.799Z,70.87
2022-10-01T23:11:07.123Z,70.81
2022-10-01T23:13:45.664Z,71.07
2022-10-01T23:16:22.405Z,70.92
2022-10-01T23:19:03.334Z,71.02
2022-10-01T23:21:38.385Z,70.84
2022-10-01T23:24:23.594Z,70.79
2022-10-01T23:27:05.604Z,70.52
2022-10-01T23:30:06.605Z,70.69
2022-10-01T23:32:49.227Z,70.93
2022-10-01T23:35:21.420Z,71.23
2022-10-01T23:38:06.493Z,71.11
2022-10-01T23:40:40.814Z,71.01
2022-10-01T23:43:16.631Z,71.05
2022-10-01T23:45:51.358Z,71.30
2022-10-01T23:48:27.335Z,71.13
2022-10-01T23:51:02.038Z,70.54
2022-10-01T23:53:37.380Z,70.55
2022-10-01T23:56:29.834Z,70.58
2022-10-01T23:59:03.624Z,70.29
